sensor_id;sensor_type;location;lat;lon;timestamp;pressure;altitude;pressure_sealevel;temperature;humidity
41862;BME280;27537;57.134;-2.136;2023-02-13T00:00:20;102556.56;;;5.72;100.00
41862;BME280;27537;57.134;-2.136;2023-02-13T00:02:47;102515.41;;;5.34;100.00
41862;BME280;27537;57.134;-2.136;2023-02-13T00:05:14;102514.44;;;5.26;100.00
41862;BME280;27537;57.134;-2.136;2023-02-13T00:07:41;102498.81;;;5.23;100.00
41862;BME280;27537;57.134;-2.136;2023-02-13T00:10:08;102516.25;;;5.31;100.00
41862;BME280;27537;57.134;-2.136;2023-02-13T00:12:35;102544.31;;;5.60;100.00
41862;BME280;27537;57.134;-2.136;2023-02-13T00:15:02;102565.28;;;5.79;100.00
41862;BME280;27537;57.134;-2.136;2023-02-13T00:17:30;102487.59;;;5.27;100.00
41862;BME280;27537;57.134;-2.136;2023-02-13T00:19:57;102520.78;;;5.49;100.00
41862;BME280;27537;57.134;-2.136;2023-02-13T00:22:23;102468.50;;;5.22;100.00
41862;BME280;27537;57.134;-2.136;2023-02-13T00:24:50;102502.47;;;5.39;100.00
41862;BME280;27537;57.134;-2.136;2023-02-13T00:27:17;102495.38;;;5.27;100.00
41862;BME280;27537;57.134;-2.136;2023-02-13T00:29:44;102477.94;;;5.13;100.00
41862;BME280;27537;57.134;-2.136;2023-02-13T00:32:11;102517.22;;;5.43;100.00
41862;BME280;27537;57.134;-2.136;2023-02-13T00:34:38;102523.31;;;5.45;100.00
41862;BME280;27537;57.134;-2.136;2023-02-13T00:37:04;102492.84;;;5.30;100.00
41862;BME280;27537;57.134;-2.136;2023-02-13T00:39:31;102507.56;;;5.31;100.00
41862;BME280;27537;57.134;-2.136;2023-02-13T00:41:58;102492.72;;;5.21;100.00
41862;BME280;27537;57.134;-2.136;2023-02-13T00:44:25;102496.22;;;5.23;100.00
41862;BME280;27537;57.134;-2.136;2023-02-13T00:46:51;102512.75;;;5.31;100.00
41862;BME280;27537;57.134;-2.136;2023-02-13T00:49:18;102497.97;;;5.25;100.00
41862;BME280;27537;57.134;-2.136;2023-02-13T00:51:45;102532.91;;;5.47;100.00
41862;BME280;27537;57.134;-2.136;2023-02-13T00:54:11;102476.91;;;5.04;100.00
41862;BME280;27537;57.134;-2.136;2023-02-13T00:56:38;102503.88;;;5.12;100.00
41862;BME280;27537;57.134;-2.136;2023-02-13T00:59:05;102557.97;;;5.47;100.00
41862;BME280;27537;57.134;-2.136;2023-02-13T01:01:32;102510.78;;;5.10;100.00
41862;BME280;27537;57.134;-2.136;2023-02-13T01:03:58;102522.06;;;5.13;100.00
41862;BME280;27537;57.134;-2.136;2023-02-13T01:06:25;102503.56;;;4.92;100.00
41862;BME280;27537;57.134;-2.136;2023-02-13T01:08:52;102487.94;;;4.86;100.00
41862;BME280;27537;57.134;-2.136;2023-02-13T01:11:19;102506.16;;;4.92;100.00
41862;BME280;27537;57.134;-2.136;2023-02-13T01:13:45;102496.50;;;4.80;100.00
41862;BME280;27537;57.134;-2.136;2023-02-13T01:16:12;102465.06;;;4.60;100.00
41862;BME280;27537;57.134;-2.136;2023-02-13T01:18:41;102510.41;;;4.84;100.00
41862;BME280;27537;57.134;-2.136;2023-02-13T01:21:14;102500.00;;;4.82;100.00
41862;BME280;27537;57.134;-2.136;2023-02-13T01:23:42;102508.75;;;4.92;100.00
41862;BME280;27537;57.134;-2.136;2023-02-13T01:26:18;102493.94;;;4.83;100.00
41862;BME280;27537;57.134;-2.136;2023-02-13T01:28:45;102500.84;;;4.83;100.00
41862;BME280;27537;57.134;-2.136;2023-02-13T01:31:12;102539.34;;;5.13;100.00
41862;BME280;27537;57.134;-2.136;2023-02-13T01:33:39;102475.59;;;4.69;100.00
41862;BME280;27537;57.134;-2.136;2023-02-13T01:36:08;102496.56;;;4.85;100.00
41862;BME280;27537;57.134;-2.136;2023-02-13T01:38:35;102486.03;;;4.75;100.00
41862;BME280;27537;57.134;-2.136;2023-02-13T01:41:02;102517.28;;;4.83;100.00
41862;BME280;27537;57.134;-2.136;2023-02-13T01:43:55;102546.19;;;5.05;100.00
41862;BME280;27537;57.134;-2.136;2023-02-13T01:46:34;102541.81;;;5.02;100.00
41862;BME280;27537;57.134;-2.136;2023-02-13T01:49:10;102490.25;;;4.66;100.00
41862;BME280;27537;57.134;-2.136;2023-02-13T01:51:39;102498.94;;;4.69;100.00
41862;BME280;27537;57.134;-2.136;2023-02-13T01:54:16;102509.25;;;4.65;100.00
41862;BME280;27537;57.134;-2.136;2023-02-13T01:56:51;102529.19;;;4.69;100.00
41862;BME280;27537;57.134;-2.136;2023-02-13T01:59:26;102531.75;;;4.66;100.00
41862;BME280;27537;57.134;-2.136;2023-02-13T02:01:55;102506.59;;;4.62;100.00
41862;BME280;27537;57.134;-2.136;2023-02-13T02:04:31;102534.56;;;4.81;100.00
41862;BME280;27537;57.134;-2.136;2023-02-13T02:07:07;102493.56;;;4.57;100.00
41862;BME280;27537;57.134;-2.136;2023-02-13T02:09:39;102459.69;;;4.46;100.00
41862;BME280;27537;57.134;-2.136;2023-02-13T02:14:43;102443.91;;;4.35;100.00
41862;BME280;27537;57.134;-2.136;2023-02-13T02:17:11;102524.16;;;4.80;100.00
41862;BME280;27537;57.134;-2.136;2023-02-13T02:25:03;102528.69;;;4.93;100.00
41862;BME280;27537;57.134;-2.136;2023-02-13T02:38:57;102447.44;;;4.39;100.00
41862;BME280;27537;57.134;-2.136;2023-02-13T02:44:57;102520.00;;;4.89;100.00
41862;BME280;27537;57.134;-2.136;2023-02-13T02:50:56;102509.59;;;4.88;100.00
41862;BME280;27537;57.134;-2.136;2023-02-13T02:53:32;102510.50;;;4.91;100.00
41862;BME280;27537;57.134;-2.136;2023-02-13T02:59:15;102511.34;;;4.89;100.00
41862;BME280;27537;57.134;-2.136;2023-02-13T03:02:10;102448.50;;;4.50;100.00
41862;BME280;27537;57.134;-2.136;2023-02-13T03:04:57;102451.13;;;4.53;100.00
41862;BME280;27537;57.134;-2.136;2023-02-13T03:07:44;102494.78;;;4.81;100.00
41862;BME280;27537;57.134;-2.136;2023-02-13T03:10:16;102486.00;;;4.74;100.00
41862;BME280;27537;57.134;-2.136;2023-02-13T03:13:11;102480.66;;;4.63;100.00
41862;BME280;27537;57.134;-2.136;2023-02-13T03:15:51;102479.69;;;4.56;100.00
41862;BME280;27537;57.134;-2.136;2023-02-13T03:18:38;102497.28;;;4.73;100.00
41862;BME280;27537;57.134;-2.136;2023-02-13T03:21:47;102514.63;;;4.77;100.00
41862;BME280;27537;57.134;-2.136;2023-02-13T03:25:24;102503.41;;;4.78;100.00
41862;BME280;27537;57.134;-2.136;2023-02-13T03:30:31;102506.72;;;4.69;100.00
41862;BME280;27537;57.134;-2.136;2023-02-13T03:42:55;102458.88;;;4.50;100.00
41862;BME280;27537;57.134;-2.136;2023-02-13T03:45:06;102419.47;;;4.18;100.00
41862;BME280;27537;57.134;-2.136;2023-02-13T03:47:56;102433.50;;;4.31;100.00
41862;BME280;27537;57.134;-2.136;2023-02-13T03:50:25;102402.97;;;4.13;100.00
41862;BME280;27537;57.134;-2.136;2023-02-13T03:52:58;102439.50;;;4.27;100.00
41862;BME280;27537;57.134;-2.136;2023-02-13T03:55:32;102457.84;;;4.41;100.00
41862;BME280;27537;57.134;-2.136;2023-02-13T03:58:23;102428.16;;;4.23;100.00
41862;BME280;27537;57.134;-2.136;2023-02-13T04:01:11;102494.44;;;4.57;100.00
41862;BME280;27537;57.134;-2.136;2023-02-13T04:06:45;102503.00;;;4.52;100.00
41862;BME280;27537;57.134;-2.136;2023-02-13T04:09:14;102443.72;;;4.20;100.00
41862;BME280;27537;57.134;-2.136;2023-02-13T04:11:52;102427.84;;;4.03;100.00
41862;BME280;27537;57.134;-2.136;2023-02-13T04:14:30;102493.25;;;4.38;100.00
41862;BME280;27537;57.134;-2.136;2023-02-13T04:17:09;102459.22;;;4.18;100.00
41862;BME280;27537;57.134;-2.136;2023-02-13T04:19:38;102481.03;;;4.31;100.00
41862;BME280;27537;57.134;-2.136;2023-02-13T04:22:05;102489.69;;;4.30;100.00
41862;BME280;27537;57.134;-2.136;2023-02-13T04:24:31;102425.19;;;3.97;100.00
41862;BME280;27537;57.134;-2.136;2023-02-13T04:26:58;102419.00;;;3.90;100.00
41862;BME280;27537;57.134;-2.136;2023-02-13T04:29:25;102437.38;;;4.03;100.00
41862;BME280;27537;57.134;-2.136;2023-02-13T04:31:52;102426.84;;;3.93;100.00
41862;BME280;27537;57.134;-2.136;2023-02-13T04:34:19;102417.47;;;4.02;100.00
41862;BME280;27537;57.134;-2.136;2023-02-13T04:36:46;102440.03;;;4.09;100.00
41862;BME280;27537;57.134;-2.136;2023-02-13T04:39:13;102472.31;;;4.26;100.00
41862;BME280;27537;57.134;-2.136;2023-02-13T04:41:40;102460.31;;;4.33;100.00
41862;BME280;27537;57.134;-2.136;2023-02-13T04:44:06;102455.84;;;4.23;100.00
41862;BME280;27537;57.134;-2.136;2023-02-13T04:46:33;102504.50;;;4.37;100.00
41862;BME280;27537;57.134;-2.136;2023-02-13T04:49:00;102434.66;;;3.96;100.00
41862;BME280;27537;57.134;-2.136;2023-02-13T04:51:27;102454.94;;;4.21;100.00
41862;BME280;27537;57.134;-2.136;2023-02-13T04:53:53;102485.13;;;4.17;100.00
41862;BME280;27537;57.134;-2.136;2023-02-13T04:56:20;102464.22;;;4.06;100.00
41862;BME280;27537;57.134;-2.136;2023-02-13T04:58:47;102420.75;;;3.90;100.00
41862;BME280;27537;57.134;-2.136;2023-02-13T05:01:15;102466.16;;;4.18;100.00
41862;BME280;27537;57.134;-2.136;2023-02-13T05:03:42;102424.13;;;3.87;100.00
41862;BME280;27537;57.134;-2.136;2023-02-13T05:06:09;102495.69;;;4.28;100.00
41862;BME280;27537;57.134;-2.136;2023-02-13T05:08:36;102423.28;;;3.87;100.00
41862;BME280;27537;57.134;-2.136;2023-02-13T05:11:03;102453.88;;;4.08;100.00
41862;BME280;27537;57.134;-2.136;2023-02-13T05:13:30;102448.50;;;3.97;100.00
41862;BME280;27537;57.134;-2.136;2023-02-13T05:15:56;102429.25;;;3.84;100.00
41862;BME280;27537;57.134;-2.136;2023-02-13T05:18:23;102404.66;;;3.60;100.00
41862;BME280;27537;57.134;-2.136;2023-02-13T05:20:50;102478.94;;;4.09;100.00
41862;BME280;27537;57.134;-2.136;2023-02-13T05:23:36;102472.78;;;4.04;100.00
41862;BME280;27537;57.134;-2.136;2023-02-13T05:26:03;102439.53;;;3.78;100.00
41862;BME280;27537;57.134;-2.136;2023-02-13T05:28:29;102416.06;;;3.69;100.00
41862;BME280;27537;57.134;-2.136;2023-02-13T05:31:15;102424.78;;;3.74;100.00
41862;BME280;27537;57.134;-2.136;2023-02-13T05:33:42;102459.81;;;4.04;100.00
41862;BME280;27537;57.134;-2.136;2023-02-13T05:36:08;102457.09;;;3.94;100.00
41862;BME280;27537;57.134;-2.136;2023-02-13T05:38:35;102395.91;;;3.54;100.00
41862;BME280;27537;57.134;-2.136;2023-02-13T05:41:02;102393.13;;;3.43;100.00
41862;BME280;27537;57.134;-2.136;2023-02-13T05:43:29;102442.81;;;3.69;100.00
41862;BME280;27537;57.134;-2.136;2023-02-13T05:46:03;102416.66;;;3.55;100.00
41862;BME280;27537;57.134;-2.136;2023-02-13T05:48:31;102427.00;;;3.54;100.00
41862;BME280;27537;57.134;-2.136;2023-02-13T05:50:58;102457.72;;;3.81;100.00
41862;BME280;27537;57.134;-2.136;2023-02-13T05:53:25;102427.00;;;3.54;100.00
41862;BME280;27537;57.134;-2.136;2023-02-13T05:55:52;102400.72;;;3.34;100.00
41862;BME280;27537;57.134;-2.136;2023-02-13T05:58:20;102426.97;;;3.52;100.00
41862;BME280;27537;57.134;-2.136;2023-02-13T06:00:47;102406.78;;;3.34;100.00
41862;BME280;27537;57.134;-2.136;2023-02-13T06:03:14;102398.94;;;3.30;100.00
41862;BME280;27537;57.134;-2.136;2023-02-13T06:05:40;102441.59;;;3.50;100.00
41862;BME280;27537;57.134;-2.136;2023-02-13T06:08:07;102383.03;;;3.11;100.00
41862;BME280;27537;57.134;-2.136;2023-02-13T06:10:34;102389.91;;;3.09;100.00
41862;BME280;27537;57.134;-2.136;2023-02-13T06:13:01;102414.31;;;3.22;100.00
41862;BME280;27537;57.134;-2.136;2023-02-13T06:15:28;102401.22;;;3.14;100.00
41862;BME280;27537;57.134;-2.136;2023-02-13T06:17:55;102437.88;;;3.36;100.00
41862;BME280;27537;57.134;-2.136;2023-02-13T06:20:21;102411.53;;;3.13;100.00
41862;BME280;27537;57.134;-2.136;2023-02-13T06:22:50;102471.91;;;3.54;100.00
41862;BME280;27537;57.134;-2.136;2023-02-13T06:25:17;102476.31;;;3.58;100.00
41862;BME280;27537;57.134;-2.136;2023-02-13T06:27:45;102435.19;;;3.30;100.00
41862;BME280;27537;57.134;-2.136;2023-02-13T06:30:12;102464.16;;;3.56;100.00
41862;BME280;27537;57.134;-2.136;2023-02-13T06:32:39;102393.31;;;3.07;100.00
41862;BME280;27537;57.134;-2.136;2023-02-13T06:35:06;102431.81;;;3.34;100.00
41862;BME280;27537;57.134;-2.136;2023-02-13T06:37:33;102442.16;;;3.34;100.00
41862;BME280;27537;57.134;-2.136;2023-02-13T06:40:01;102424.72;;;3.25;100.00
41862;BME280;27537;57.134;-2.136;2023-02-13T06:42:27;102400.31;;;3.12;100.00
41862;BME280;27537;57.134;-2.136;2023-02-13T06:44:54;102430.81;;;3.27;100.00
41862;BME280;27537;57.134;-2.136;2023-02-13T06:47:21;102398.72;;;3.20;100.00
41862;BME280;27537;57.134;-2.136;2023-02-13T06:49:47;102405.59;;;3.18;100.00
41862;BME280;27537;57.134;-2.136;2023-02-13T06:52:14;102441.44;;;3.41;100.00
41862;BME280;27537;57.134;-2.136;2023-02-13T06:54:41;102422.22;;;3.28;100.00
41862;BME280;27537;57.134;-2.136;2023-02-13T06:57:14;102435.44;;;3.42;100.00
41862;BME280;27537;57.134;-2.136;2023-02-13T06:59:41;102479.81;;;3.62;100.00
41862;BME280;27537;57.134;-2.136;2023-02-13T07:02:12;102427.56;;;3.37;100.00
41862;BME280;27537;57.134;-2.136;2023-02-13T07:04:39;102427.63;;;3.40;100.00
41862;BME280;27537;57.134;-2.136;2023-02-13T07:07:06;102434.53;;;3.41;100.00
41862;BME280;27537;57.134;-2.136;2023-02-13T07:09:32;102427.69;;;3.45;100.00
41862;BME280;27537;57.134;-2.136;2023-02-13T07:12:06;102434.59;;;3.45;100.00
41862;BME280;27537;57.134;-2.136;2023-02-13T07:14:33;102408.38;;;3.26;100.00
41862;BME280;27537;57.134;-2.136;2023-02-13T07:16:59;102384.84;;;3.15;100.00
41862;BME280;27537;57.134;-2.136;2023-02-13T07:19:26;102402.28;;;3.24;100.00
41862;BME280;27537;57.134;-2.136;2023-02-13T07:21:53;102437.06;;;3.37;100.00
41862;BME280;27537;57.134;-2.136;2023-02-13T07:24:19;102422.22;;;3.28;100.00
41862;BME280;27537;57.134;-2.136;2023-02-13T07:26:46;102421.28;;;3.25;100.00
41862;BME280;27537;57.134;-2.136;2023-02-13T07:29:13;102380.31;;;3.03;100.00
41862;BME280;27537;57.134;-2.136;2023-02-13T07:31:39;102407.41;;;3.21;100.00
41862;BME280;27537;57.134;-2.136;2023-02-13T07:34:07;102408.25;;;3.21;100.00
41862;BME280;27537;57.134;-2.136;2023-02-13T07:36:33;102402.13;;;3.16;100.00
41862;BME280;27537;57.134;-2.136;2023-02-13T07:39:00;102413.22;;;3.11;100.00
41862;BME280;27537;57.134;-2.136;2023-02-13T07:41:27;102445.50;;;3.28;100.00
41862;BME280;27537;57.134;-2.136;2023-02-13T07:43:54;102429.09;;;3.28;100.00
41862;BME280;27537;57.134;-2.136;2023-02-13T07:46:20;102391.53;;;3.04;100.00
41862;BME280;27537;57.134;-2.136;2023-02-13T07:48:47;102412.50;;;3.18;100.00
41862;BME280;27537;57.134;-2.136;2023-02-13T07:51:14;102426.47;;;3.26;100.00
41862;BME280;27537;57.134;-2.136;2023-02-13T07:53:41;102397.56;;;3.03;100.00
41862;BME280;27537;57.134;-2.136;2023-02-13T07:56:09;102412.31;;;3.09;100.00
41862;BME280;27537;57.134;-2.136;2023-02-13T07:58:37;102466.53;;;3.45;100.00
41862;BME280;27537;57.134;-2.136;2023-02-13T08:01:07;102472.53;;;3.42;100.00
41862;BME280;27537;57.134;-2.136;2023-02-13T08:03:35;102427.09;;;3.14;100.00
41862;BME280;27537;57.134;-2.136;2023-02-13T08:06:02;102402.03;;;3.12;100.00
41862;BME280;27537;57.134;-2.136;2023-02-13T08:08:29;102472.88;;;3.59;100.00
41862;BME280;27537;57.134;-2.136;2023-02-13T08:10:56;102415.38;;;3.32;100.00
41862;BME280;27537;57.134;-2.136;2023-02-13T08:13:47;102418.69;;;3.25;100.00
41862;BME280;27537;57.134;-2.136;2023-02-13T08:16:13;102431.06;;;3.41;100.00
41862;BME280;27537;57.134;-2.136;2023-02-13T08:18:40;102420.00;;;3.48;100.00
41862;BME280;27537;57.134;-2.136;2023-02-13T08:21:07;102422.56;;;3.48;100.00
41862;BME280;27537;57.134;-2.136;2023-02-13T08:23:34;102392.19;;;3.87;100.00
41862;BME280;27537;57.134;-2.136;2023-02-13T08:26:01;102427.72;;;4.49;100.00
41862;BME280;27537;57.134;-2.136;2023-02-13T08:28:28;102403.63;;;4.57;100.00
41862;BME280;27537;57.134;-2.136;2023-02-13T08:30:55;102414.41;;;4.88;100.00
41862;BME280;27537;57.134;-2.136;2023-02-13T08:33:22;102407.66;;;5.01;100.00
41862;BME280;27537;57.134;-2.136;2023-02-13T08:35:49;102410.78;;;4.75;100.00
41862;BME280;27537;57.134;-2.136;2023-02-13T08:38:15;102419.25;;;4.61;100.00
41862;BME280;27537;57.134;-2.136;2023-02-13T08:40:42;102404.06;;;4.91;100.00
41862;BME280;27537;57.134;-2.136;2023-02-13T08:43:09;102378.97;;;4.92;100.00
41862;BME280;27537;57.134;-2.136;2023-02-13T08:45:36;102384.72;;;5.40;100.00
41862;BME280;27537;57.134;-2.136;2023-02-13T08:48:03;102397.25;;;5.85;100.00
41862;BME280;27537;57.134;-2.136;2023-02-13T08:50:30;102468.66;;;6.17;100.00
41862;BME280;27537;57.134;-2.136;2023-02-13T08:52:57;102385.13;;;5.86;100.00
41862;BME280;27537;57.134;-2.136;2023-02-13T08:55:26;102451.44;;;6.34;100.00
41862;BME280;27537;57.134;-2.136;2023-02-13T08:57:53;102445.44;;;6.44;100.00
41862;BME280;27537;57.134;-2.136;2023-02-13T09:00:20;102450.81;;;6.71;100.00
41862;BME280;27537;57.134;-2.136;2023-02-13T09:02:50;102409.91;;;6.48;100.00
41862;BME280;27537;57.134;-2.136;2023-02-13T09:05:16;102415.22;;;6.68;100.00
41862;BME280;27537;57.134;-2.136;2023-02-13T09:07:43;102400.44;;;6.61;100.00
41862;BME280;27537;57.134;-2.136;2023-02-13T09:10:10;102407.41;;;6.65;100.00
41862;BME280;27537;57.134;-2.136;2023-02-13T09:12:37;102410.97;;;6.84;100.00
41862;BME280;27537;57.134;-2.136;2023-02-13T09:15:04;102404.78;;;6.63;100.00
41862;BME280;27537;57.134;-2.136;2023-02-13T09:17:31;102391.63;;;6.40;100.00
41862;BME280;27537;57.134;-2.136;2023-02-13T09:19:58;102403.50;;;6.01;100.00
41862;BME280;27537;57.134;-2.136;2023-02-13T09:22:25;102364.34;;;5.83;100.00
41862;BME280;27537;57.134;-2.136;2023-02-13T09:24:52;102388.78;;;6.05;100.00
41862;BME280;27537;57.134;-2.136;2023-02-13T09:27:18;102431.47;;;6.29;100.00
41862;BME280;27537;57.134;-2.136;2023-02-13T09:29:45;102384.34;;;5.95;100.00
41862;BME280;27537;57.134;-2.136;2023-02-13T09:32:12;102390.50;;;6.01;100.00
41862;BME280;27537;57.134;-2.136;2023-02-13T09:34:39;102383.53;;;5.97;100.00
41862;BME280;27537;57.134;-2.136;2023-02-13T09:37:06;102359.94;;;5.74;100.00
41862;BME280;27537;57.134;-2.136;2023-02-13T09:39:33;102364.50;;;6.03;100.00
41862;BME280;27537;57.134;-2.136;2023-02-13T09:42:00;102358.41;;;5.99;100.00
41862;BME280;27537;57.134;-2.136;2023-02-13T09:44:36;102391.25;;;5.93;100.00
41862;BME280;27537;57.134;-2.136;2023-02-13T09:49:49;102395.75;;;6.11;100.00
41862;BME280;27537;57.134;-2.136;2023-02-13T09:52:18;102421.09;;;6.36;100.00
41862;BME280;27537;57.134;-2.136;2023-02-13T09:54:45;102343.56;;;5.87;100.00
41862;BME280;27537;57.134;-2.136;2023-02-13T09:57:32;102416.84;;;6.51;100.00
41862;BME280;27537;57.134;-2.136;2023-02-13T10:00:09;102416.97;;;6.66;100.00
41862;BME280;27537;57.134;-2.136;2023-02-13T10:08:20;102379.56;;;6.53;100.00
41862;BME280;27537;57.134;-2.136;2023-02-13T10:13:36;102409.94;;;6.53;100.00
41862;BME280;27537;57.134;-2.136;2023-02-13T10:18:52;102345.69;;;6.42;100.00
41862;BME280;27537;57.134;-2.136;2023-02-13T10:21:23;102406.63;;;6.86;100.00
41862;BME280;27537;57.134;-2.136;2023-02-13T10:26:29;102365.75;;;6.65;100.00
41862;BME280;27537;57.134;-2.136;2023-02-13T10:29:38;102364.75;;;6.38;100.00
41862;BME280;27537;57.134;-2.136;2023-02-13T10:32:35;102350.94;;;6.50;100.00
41862;BME280;27537;57.134;-2.136;2023-02-13T10:35:26;102378.88;;;6.83;100.00
41862;BME280;27537;57.134;-2.136;2023-02-13T10:37:56;102404.97;;;7.00;100.00
41862;BME280;27537;57.134;-2.136;2023-02-13T10:40:43;102294.38;;;6.15;100.00
41862;BME280;27537;57.134;-2.136;2023-02-13T10:43:21;102226.50;;;5.75;100.00
41862;BME280;27537;57.134;-2.136;2023-02-13T10:46:17;102358.88;;;6.75;100.00
41862;BME280;27537;57.134;-2.136;2023-02-13T10:49:31;102417.13;;;7.01;100.00
41862;BME280;27537;57.134;-2.136;2023-02-13T10:52:13;102411.97;;;7.20;100.00
41862;BME280;27537;57.134;-2.136;2023-02-13T11:02:51;102374.66;;;7.29;100.00
41862;BME280;27537;57.134;-2.136;2023-02-13T11:05:25;102367.75;;;7.49;100.00
41862;BME280;27537;57.134;-2.136;2023-02-13T11:07:56;102339.94;;;7.36;100.00
41862;BME280;27537;57.134;-2.136;2023-02-13T11:10:26;102356.44;;;7.38;100.00
41862;BME280;27537;57.134;-2.136;2023-02-13T11:12:54;102374.72;;;7.58;100.00
41862;BME280;27537;57.134;-2.136;2023-02-13T11:15:29;102379.06;;;7.74;100.00
41862;BME280;27537;57.134;-2.136;2023-02-13T11:18:03;102290.41;;;7.22;100.00
41862;BME280;27537;57.134;-2.136;2023-02-13T11:20:42;102266.94;;;7.10;100.00
41862;BME280;27537;57.134;-2.136;2023-02-13T11:28:36;102332.97;;;7.39;100.00
41862;BME280;27537;57.134;-2.136;2023-02-13T11:31:21;102341.69;;;7.49;100.00
41862;BME280;27537;57.134;-2.136;2023-02-13T11:33:48;102334.72;;;7.59;100.00
41862;BME280;27537;57.134;-2.136;2023-02-13T11:36:24;102286.09;;;7.33;100.00
41862;BME280;27537;57.134;-2.136;2023-02-13T11:38:59;102341.69;;;7.63;100.00
41862;BME280;27537;57.134;-2.136;2023-02-13T11:41:27;102300.81;;;7.22;100.00
41862;BME280;27537;57.134;-2.136;2023-02-13T11:43:57;102339.94;;;7.68;100.00
41862;BME280;27537;57.134;-2.136;2023-02-13T11:46:47;102330.38;;;7.63;100.00
41862;BME280;27537;57.134;-2.136;2023-02-13T11:49:22;102352.13;;;7.86;100.00
41862;BME280;27537;57.134;-2.136;2023-02-13T11:51:57;102338.22;;;7.83;100.00
41862;BME280;27537;57.134;-2.136;2023-02-13T11:54:34;102356.47;;;7.90;100.00
41862;BME280;27537;57.134;-2.136;2023-02-13T11:57:18;102349.47;;;8.12;100.00
41862;BME280;27537;57.134;-2.136;2023-02-13T11:59:49;102300.84;;;7.87;100.00
41862;BME280;27537;57.134;-2.136;2023-02-13T12:05:14;102345.13;;;8.25;100.00
41862;BME280;27537;57.134;-2.136;2023-02-13T12:07:42;102306.03;;;7.97;100.00
41862;BME280;27537;57.134;-2.136;2023-02-13T12:10:30;102345.97;;;8.40;100.00
41862;BME280;27537;57.134;-2.136;2023-02-13T12:15:40;102280.78;;;8.10;100.00
41862;BME280;27537;57.134;-2.136;2023-02-13T12:31:50;102323.03;;;9.06;100.00
41862;BME280;27537;57.134;-2.136;2023-02-13T12:46:30;102322.03;;;9.30;100.00
41862;BME280;27537;57.134;-2.136;2023-02-13T12:52:23;102258.78;;;8.79;100.00
41862;BME280;27537;57.134;-2.136;2023-02-13T13:00:38;102229.34;;;8.54;100.00
41862;BME280;27537;57.134;-2.136;2023-02-13T13:28:41;102281.97;;;9.28;100.00
41862;BME280;27537;57.134;-2.136;2023-02-13T13:31:11;102283.81;;;9.17;100.00
41862;BME280;27537;57.134;-2.136;2023-02-13T13:33:42;102253.38;;;9.08;100.00
41862;BME280;27537;57.134;-2.136;2023-02-13T13:36:39;102200.50;;;8.71;100.00
41862;BME280;27537;57.134;-2.136;2023-02-13T13:39:18;102279.47;;;9.15;100.00
41862;BME280;27537;57.134;-2.136;2023-02-13T13:49:53;102269.09;;;9.02;100.00
41862;BME280;27537;57.134;-2.136;2023-02-13T13:52:36;102225.59;;;8.93;100.00
41862;BME280;27537;57.134;-2.136;2023-02-13T13:55:04;102204.75;;;8.89;100.00
41862;BME280;27537;57.134;-2.136;2023-02-13T13:57:59;102244.66;;;9.06;100.00
41862;BME280;27537;57.134;-2.136;2023-02-13T14:00:28;102188.31;;;8.71;100.00
41862;BME280;27537;57.134;-2.136;2023-02-13T14:05:31;102204.69;;;8.95;100.00
41862;BME280;27537;57.134;-2.136;2023-02-13T14:08:07;102238.38;;;9.34;100.00
41862;BME280;27537;57.134;-2.136;2023-02-13T14:13:29;102155.13;;;8.89;100.00
41862;BME280;27537;57.134;-2.136;2023-02-13T14:15:56;102208.09;;;9.06;100.00
41862;BME280;27537;57.134;-2.136;2023-02-13T14:18:27;102179.41;;;8.97;100.00
41862;BME280;27537;57.134;-2.136;2023-02-13T14:21:00;102232.34;;;9.25;100.00
41862;BME280;27537;57.134;-2.136;2023-02-13T14:23:43;102237.63;;;9.16;100.00
41862;BME280;27537;57.134;-2.136;2023-02-13T14:26:27;102225.50;;;9.10;100.00
41862;BME280;27537;57.134;-2.136;2023-02-13T14:28:59;102203.00;;;8.88;100.00
41862;BME280;27537;57.134;-2.136;2023-02-13T14:31:39;102146.56;;;8.71;100.00
41862;BME280;27537;57.134;-2.136;2023-02-13T14:36:39;102212.63;;;8.83;100.00
41862;BME280;27537;57.134;-2.136;2023-02-13T14:39:28;102219.38;;;9.11;100.00
41862;BME280;27537;57.134;-2.136;2023-02-13T14:41:59;102170.81;;;8.87;100.00
41862;BME280;27537;57.134;-2.136;2023-02-13T14:44:43;102205.53;;;9.03;100.00
41862;BME280;27537;57.134;-2.136;2023-02-13T14:49:46;102183.06;;;8.76;100.00
41862;BME280;27537;57.134;-2.136;2023-02-13T14:52:21;102169.22;;;8.68;100.00
41862;BME280;27537;57.134;-2.136;2023-02-13T14:54:53;102210.72;;;9.05;100.00
41862;BME280;27537;57.134;-2.136;2023-02-13T14:57:25;102201.19;;;8.98;100.00
41862;BME280;27537;57.134;-2.136;2023-02-13T14:59:58;102213.38;;;9.00;100.00
41862;BME280;27537;57.134;-2.136;2023-02-13T15:02:46;102204.69;;;8.95;100.00
41862;BME280;27537;57.134;-2.136;2023-02-13T15:05:17;102146.59;;;8.64;100.00
41862;BME280;27537;57.134;-2.136;2023-02-13T15:08:21;102203.78;;;9.02;100.00
41862;BME280;27537;57.134;-2.136;2023-02-13T15:10:54;102114.50;;;8.46;100.00
41862;BME280;27537;57.134;-2.136;2023-02-13T15:13:22;102213.38;;;8.96;100.00
41862;BME280;27537;57.134;-2.136;2023-02-13T15:15:55;102187.44;;;8.71;100.00
41862;BME280;27537;57.134;-2.136;2023-02-13T15:18:27;102182.19;;;8.79;100.00
41862;BME280;27537;57.134;-2.136;2023-02-13T15:20:56;102169.22;;;8.66;100.00
41862;BME280;27537;57.134;-2.136;2023-02-13T15:23:35;102154.38;;;8.71;100.00
41862;BME280;27537;57.134;-2.136;2023-02-13T15:26:06;102099.03;;;8.14;100.00
41862;BME280;27537;57.134;-2.136;2023-02-13T15:28:34;102187.41;;;8.77;100.00
41862;BME280;27537;57.134;-2.136;2023-02-13T15:31:04;102195.19;;;8.85;100.00
41862;BME280;27537;57.134;-2.136;2023-02-13T15:33:47;102184.91;;;8.59;100.00
41862;BME280;27537;57.134;-2.136;2023-02-13T15:36:22;102150.22;;;8.35;100.00
41862;BME280;27537;57.134;-2.136;2023-02-13T15:39:04;102211.00;;;8.60;100.00
41862;BME280;27537;57.134;-2.136;2023-02-13T15:41:42;102144.22;;;8.19;100.00